sensor_id;sensor_type;location;lat;lon;timestamp;pressure;altitude;pressure_sealevel;temperature;humidity
70338;BME280;57757;53.198;19.646;2023-03-21T00:01:00;99991.34;;;8.71;64.55
70338;BME280;57757;53.198;19.646;2023-03-21T00:03:32;99988.36;;;8.73;64.61
70338;BME280;57757;53.198;19.646;2023-03-21T00:06:08;99991.50;;;8.73;64.49
70338;BME280;57757;53.198;19.646;2023-03-21T00:08:38;99990.44;;;8.73;64.70
70338;BME280;57757;53.198;19.646;2023-03-21T00:11:08;99991.60;;;8.76;64.71
70338;BME280;57757;53.198;19.646;2023-03-21T00:13:36;99992.84;;;8.74;64.74
70338;BME280;57757;53.198;19.646;2023-03-21T00:16:17;99997.77;;;8.70;64.61
70338;BME280;57757;53.198;19.646;2023-03-21T00:18:56;99994.80;;;8.62;64.56
70338;BME280;57757;53.198;19.646;2023-03-21T00:21:25;99994.95;;;8.54;64.54
70338;BME280;57757;53.198;19.646;2023-03-21T00:24:24;99991.39;;;8.41;64.36
70338;BME280;57757;53.198;19.646;2023-03-21T00:26:52;99995.63;;;8.36;64.55
70338;BME280;57757;53.198;19.646;2023-03-21T00:29:20;99992.20;;;8.34;64.70
70338;BME280;57757;53.198;19.646;2023-03-21T00:31:48;99990.25;;;8.36;64.77
70338;BME280;57757;53.198;19.646;2023-03-21T00:34:19;99990.06;;;8.37;64.76
70338;BME280;57757;53.198;19.646;2023-03-21T00:37:04;99988.72;;;8.34;64.69
70338;BME280;57757;53.198;19.646;2023-03-21T00:39:37;99987.17;;;8.34;64.73
70338;BME280;57757;53.198;19.646;2023-03-21T00:42:05;99987.36;;;8.34;64.83
70338;BME280;57757;53.198;19.646;2023-03-21T00:44:33;99988.63;;;8.29;64.81
70338;BME280;57757;53.198;19.646;2023-03-21T00:47:03;99988.81;;;8.29;65.02
70338;BME280;57757;53.198;19.646;2023-03-21T00:49:35;99989.85;;;8.28;64.95
70338;BME280;57757;53.198;19.646;2023-03-21T00:52:07;99984.84;;;8.27;64.96
70338;BME280;57757;53.198;19.646;2023-03-21T00:54:46;99987.80;;;8.26;64.99
70338;BME280;57757;53.198;19.646;2023-03-21T00:57:14;99986.95;;;8.25;65.07
70338;BME280;57757;53.198;19.646;2023-03-21T00:59:42;99988.73;;;8.22;65.06
70338;BME280;57757;53.198;19.646;2023-03-21T01:02:09;99986.65;;;8.22;65.13
70338;BME280;57757;53.198;19.646;2023-03-21T01:04:42;99985.13;;;8.19;64.98
70338;BME280;57757;53.198;19.646;2023-03-21T01:07:09;99983.27;;;8.17;65.05
70338;BME280;57757;53.198;19.646;2023-03-21T01:09:37;99981.59;;;8.15;65.10
70338;BME280;57757;53.198;19.646;2023-03-21T01:12:05;99980.96;;;8.10;65.05
70338;BME280;57757;53.198;19.646;2023-03-21T01:14:32;99986.02;;;8.08;65.04
70338;BME280;57757;53.198;19.646;2023-03-21T01:17:00;99986.74;;;8.06;65.12
70338;BME280;57757;53.198;19.646;2023-03-21T01:19:28;99984.56;;;8.02;65.13
70338;BME280;57757;53.198;19.646;2023-03-21T01:22:16;99984.48;;;7.97;65.07
70338;BME280;57757;53.198;19.646;2023-03-21T01:24:43;99985.71;;;7.95;65.19
70338;BME280;57757;53.198;19.646;2023-03-21T01:27:22;99984.67;;;7.95;65.37
70338;BME280;57757;53.198;19.646;2023-03-21T01:29:50;99981.59;;;7.93;65.31
70338;BME280;57757;53.198;19.646;2023-03-21T01:32:17;99983.17;;;7.91;65.35
70338;BME280;57757;53.198;19.646;2023-03-21T01:34:45;99984.96;;;7.88;65.36
70338;BME280;57757;53.198;19.646;2023-03-21T01:37:12;99986.76;;;7.84;65.35
70338;BME280;57757;53.198;19.646;2023-03-21T01:39:41;99988.38;;;7.80;65.38
70338;BME280;57757;53.198;19.646;2023-03-21T01:42:12;99992.39;;;7.78;65.44
70338;BME280;57757;53.198;19.646;2023-03-21T01:47:24;99985.48;;;7.77;65.69
70338;BME280;57757;53.198;19.646;2023-03-21T01:49:58;99984.63;;;7.76;65.63
70338;BME280;57757;53.198;19.646;2023-03-21T01:52:37;99983.13;;;7.73;65.66
70338;BME280;57757;53.198;19.646;2023-03-21T01:55:10;99986.41;;;7.73;65.81
70338;BME280;57757;53.198;19.646;2023-03-21T01:57:45;99991.48;;;7.69;65.79
70338;BME280;57757;53.198;19.646;2023-03-21T02:00:31;99984.95;;;7.66;65.64
70338;BME280;57757;53.198;19.646;2023-03-21T02:03:00;99989.98;;;7.65;65.73
70338;BME280;57757;53.198;19.646;2023-03-21T02:08:15;99985.19;;;7.62;65.82
70338;BME280;57757;53.198;19.646;2023-03-21T02:10:45;99987.11;;;7.60;65.97
70338;BME280;57757;53.198;19.646;2023-03-21T02:13:18;99987.29;;;7.59;66.01
70338;BME280;57757;53.198;19.646;2023-03-21T02:27:15;99990.48;;;7.43;66.25
70338;BME280;57757;53.198;19.646;2023-03-21T02:38:40;99995.11;;;7.46;66.39
70338;BME280;57757;53.198;19.646;2023-03-21T02:46:44;99996.33;;;7.44;66.35
70338;BME280;57757;53.198;19.646;2023-03-21T02:52:35;99994.08;;;7.45;66.47
70338;BME280;57757;53.198;19.646;2023-03-21T02:55:13;99989.58;;;7.46;66.50
70338;BME280;57757;53.198;19.646;2023-03-21T02:57:51;99991.98;;;7.47;66.40
70338;BME280;57757;53.198;19.646;2023-03-21T03:00:22;99987.48;;;7.47;66.39
70338;BME280;57757;53.198;19.646;2023-03-21T03:02:56;99993.20;;;7.47;66.43
70338;BME280;57757;53.198;19.646;2023-03-21T03:05:45;99997.21;;;7.44;66.44
70338;BME280;57757;53.198;19.646;2023-03-21T03:08:32;99996.04;;;7.40;66.48
70338;BME280;57757;53.198;19.646;2023-03-21T03:11:33;99995.52;;;7.40;66.69
70338;BME280;57757;53.198;19.646;2023-03-21T03:25:57;99995.09;;;7.34;66.68
70338;BME280;57757;53.198;19.646;2023-03-21T03:28:32;99995.96;;;7.34;66.71
70338;BME280;57757;53.198;19.646;2023-03-21T03:31:03;99992.70;;;7.32;66.62
70338;BME280;57757;53.198;19.646;2023-03-21T03:33:40;99996.32;;;7.33;66.95
70338;BME280;57757;53.198;19.646;2023-03-21T03:36:12;99994.24;;;7.33;66.72
70338;BME280;57757;53.198;19.646;2023-03-21T03:39:02;99993.59;;;7.31;66.84
70338;BME280;57757;53.198;19.646;2023-03-21T03:41:36;99998.44;;;7.30;66.78
70338;BME280;57757;53.198;19.646;2023-03-21T03:44:24;99992.55;;;7.29;66.81
70338;BME280;57757;53.198;19.646;2023-03-21T03:47:11;99993.45;;;7.28;66.81
70338;BME280;57757;53.198;19.646;2023-03-21T03:52:41;99990.35;;;7.26;66.99
70338;BME280;57757;53.198;19.646;2023-03-21T03:55:24;99996.93;;;7.26;67.12
70338;BME280;57757;53.198;19.646;2023-03-21T03:57:53;99994.54;;;7.23;66.87
70338;BME280;57757;53.198;19.646;2023-03-21T04:00:22;99994.91;;;7.21;67.00
70338;BME280;57757;53.198;19.646;2023-03-21T04:02:49;99994.92;;;7.21;66.95
70338;BME280;57757;53.198;19.646;2023-03-21T04:05:18;99997.20;;;7.19;67.21
70338;BME280;57757;53.198;19.646;2023-03-21T04:07:47;99996.03;;;7.15;66.98
70338;BME280;57757;53.198;19.646;2023-03-21T04:10:19;99999.66;;;7.15;67.25
70338;BME280;57757;53.198;19.646;2023-03-21T04:12:46;99994.48;;;7.15;67.22
70338;BME280;57757;53.198;19.646;2023-03-21T04:15:14;99994.30;;;7.15;67.23
70338;BME280;57757;53.198;19.646;2023-03-21T04:17:42;99996.73;;;7.15;67.28
70338;BME280;57757;53.198;19.646;2023-03-21T04:20:12;99996.38;;;7.16;67.21
70338;BME280;57757;53.198;19.646;2023-03-21T04:22:58;99997.41;;;7.16;67.23
70338;BME280;57757;53.198;19.646;2023-03-21T04:25:25;99997.24;;;7.14;67.17
70338;BME280;57757;53.198;19.646;2023-03-21T04:28:01;99997.59;;;7.15;67.33
70338;BME280;57757;53.198;19.646;2023-03-21T04:30:28;99997.06;;;7.16;67.53
70338;BME280;57757;53.198;19.646;2023-03-21T04:33:01;100000.67;;;7.16;67.42
70338;BME280;57757;53.198;19.646;2023-03-21T04:35:29;99999.45;;;7.17;67.34
70338;BME280;57757;53.198;19.646;2023-03-21T04:37:57;100000.52;;;7.16;67.37
70338;BME280;57757;53.198;19.646;2023-03-21T04:40:24;100004.64;;;7.17;67.46
70338;BME280;57757;53.198;19.646;2023-03-21T04:42:52;100001.52;;;7.18;67.24
70338;BME280;57757;53.198;19.646;2023-03-21T04:45:20;100003.06;;;7.19;67.49
70338;BME280;57757;53.198;19.646;2023-03-21T04:47:48;100004.98;;;7.19;67.42
70338;BME280;57757;53.198;19.646;2023-03-21T04:50:15;100008.61;;;7.19;67.56
70338;BME280;57757;53.198;19.646;2023-03-21T04:52:43;100008.39;;;7.22;67.50
70338;BME280;57757;53.198;19.646;2023-03-21T04:55:11;100010.81;;;7.22;67.64
70338;BME280;57757;53.198;19.646;2023-03-21T04:57:39;100012.88;;;7.22;67.62
70338;BME280;57757;53.198;19.646;2023-03-21T05:00:10;100011.48;;;7.24;67.60
70338;BME280;57757;53.198;19.646;2023-03-21T05:02:41;100012.33;;;7.26;67.72
70338;BME280;57757;53.198;19.646;2023-03-21T05:05:09;100013.70;;;7.27;67.72
70338;BME280;57757;53.198;19.646;2023-03-21T05:07:39;100011.41;;;7.30;67.76
70338;BME280;57757;53.198;19.646;2023-03-21T05:10:10;100010.86;;;7.33;67.81
70338;BME280;57757;53.198;19.646;2023-03-21T05:12:38;100014.64;;;7.33;67.78
70338;BME280;57757;53.198;19.646;2023-03-21T05:15:12;100016.89;;;7.35;67.82
70338;BME280;57757;53.198;19.646;2023-03-21T05:17:40;100017.38;;;7.36;67.81
70338;BME280;57757;53.198;19.646;2023-03-21T05:20:09;100022.04;;;7.38;67.94
70338;BME280;57757;53.198;19.646;2023-03-21T05:22:38;100018.91;;;7.38;67.72
70338;BME280;57757;53.198;19.646;2023-03-21T05:25:08;100022.88;;;7.39;67.71
70338;BME280;57757;53.198;19.646;2023-03-21T05:27:36;100023.37;;;7.41;67.73
70338;BME280;57757;53.198;19.646;2023-03-21T05:30:09;100019.88;;;7.44;67.89
70338;BME280;57757;53.198;19.646;2023-03-21T05:32:37;100017.77;;;7.46;67.89
70338;BME280;57757;53.198;19.646;2023-03-21T05:35:05;100017.94;;;7.46;67.88
70338;BME280;57757;53.198;19.646;2023-03-21T05:37:33;100025.37;;;7.47;67.79
70338;BME280;57757;53.198;19.646;2023-03-21T05:40:01;100028.46;;;7.48;67.98
70338;BME280;57757;53.198;19.646;2023-03-21T05:42:30;100034.51;;;7.50;67.89
70338;BME280;57757;53.198;19.646;2023-03-21T05:44:57;100035.55;;;7.48;67.92
70338;BME280;57757;53.198;19.646;2023-03-21T05:47:25;100039.20;;;7.48;67.85
70338;BME280;57757;53.198;19.646;2023-03-21T05:49:52;100042.31;;;7.48;67.77
70338;BME280;57757;53.198;19.646;2023-03-21T05:52:20;100045.27;;;7.46;67.87
70338;BME280;57757;53.198;19.646;2023-03-21T05:54:49;100045.98;;;7.46;67.90
70338;BME280;57757;53.198;19.646;2023-03-21T05:57:16;100047.51;;;7.48;68.15
70338;BME280;57757;53.198;19.646;2023-03-21T05:59:45;100049.03;;;7.50;67.98
70338;BME280;57757;53.198;19.646;2023-03-21T06:02:13;100046.21;;;7.54;68.19
70338;BME280;57757;53.198;19.646;2023-03-21T06:04:40;100047.36;;;7.58;68.23
70338;BME280;57757;53.198;19.646;2023-03-21T06:07:08;100045.92;;;7.62;68.13
70338;BME280;57757;53.198;19.646;2023-03-21T06:09:35;100047.98;;;7.63;67.97
70338;BME280;57757;53.198;19.646;2023-03-21T06:12:03;100048.02;;;7.60;67.83
70338;BME280;57757;53.198;19.646;2023-03-21T06:14:31;100048.55;;;7.60;67.97
70338;BME280;57757;53.198;19.646;2023-03-21T06:16:58;100052.00;;;7.61;67.90
70338;BME280;57757;53.198;19.646;2023-03-21T06:19:26;100051.14;;;7.61;68.06
70338;BME280;57757;53.198;19.646;2023-03-21T06:21:53;100046.05;;;7.65;68.08
70338;BME280;57757;53.198;19.646;2023-03-21T06:24:21;100043.24;;;7.68;68.23
70338;BME280;57757;53.198;19.646;2023-03-21T06:26:49;100037.64;;;7.73;68.18
70338;BME280;57757;53.198;19.646;2023-03-21T06:29:17;100042.92;;;7.78;68.15
70338;BME280;57757;53.198;19.646;2023-03-21T06:31:45;100047.86;;;7.84;68.21
70338;BME280;57757;53.198;19.646;2023-03-21T06:34:12;100048.47;;;7.90;68.21
70338;BME280;57757;53.198;19.646;2023-03-21T06:36:40;100043.56;;;7.94;68.16
70338;BME280;57757;53.198;19.646;2023-03-21T06:39:13;100045.23;;;7.98;68.17
70338;BME280;57757;53.198;19.646;2023-03-21T06:41:42;100059.42;;;7.99;68.20
70338;BME280;57757;53.198;19.646;2023-03-21T06:44:10;100065.30;;;7.99;68.09
70338;BME280;57757;53.198;19.646;2023-03-21T06:46:38;100068.05;;;8.00;68.06
70338;BME280;57757;53.198;19.646;2023-03-21T06:49:10;100065.59;;;8.03;68.07
70338;BME280;57757;53.198;19.646;2023-03-21T06:51:37;100072.48;;;8.06;68.30
70338;BME280;57757;53.198;19.646;2023-03-21T06:54:05;100074.70;;;8.08;68.22
70338;BME280;57757;53.198;19.646;2023-03-21T06:56:33;100075.52;;;8.10;68.06
70338;BME280;57757;53.198;19.646;2023-03-21T06:59:00;100074.96;;;8.13;68.14
70338;BME280;57757;53.198;19.646;2023-03-21T07:01:28;100074.73;;;8.17;68.16
70338;BME280;57757;53.198;19.646;2023-03-21T07:03:58;100081.92;;;8.23;68.20
70338;BME280;57757;53.198;19.646;2023-03-21T07:06:27;100082.23;;;8.24;68.09
70338;BME280;57757;53.198;19.646;2023-03-21T07:08:56;100088.11;;;8.25;68.04
70338;BME280;57757;53.198;19.646;2023-03-21T07:11:25;100092.61;;;8.26;67.90
70338;BME280;57757;53.198;19.646;2023-03-21T07:13:55;100096.59;;;8.26;67.95
70338;BME280;57757;53.198;19.646;2023-03-21T07:16:27;100097.63;;;8.26;67.78
70338;BME280;57757;53.198;19.646;2023-03-21T07:18:55;100097.81;;;8.25;68.09
70338;BME280;57757;53.198;19.646;2023-03-21T07:21:24;100100.30;;;8.23;67.96
70338;BME280;57757;53.198;19.646;2023-03-21T07:23:52;100104.95;;;8.24;68.09
70338;BME280;57757;53.198;19.646;2023-03-21T07:26:20;100099.69;;;8.29;68.23
70338;BME280;57757;53.198;19.646;2023-03-21T07:28:48;100102.01;;;8.37;68.27
70338;BME280;57757;53.198;19.646;2023-03-21T07:31:16;100103.30;;;8.42;68.14
70338;BME280;57757;53.198;19.646;2023-03-21T07:33:44;100102.83;;;8.50;68.36
70338;BME280;57757;53.198;19.646;2023-03-21T07:36:13;100104.65;;;8.55;68.12
70338;BME280;57757;53.198;19.646;2023-03-21T07:38:43;100105.66;;;8.57;68.08
70338;BME280;57757;53.198;19.646;2023-03-21T07:41:18;100106.11;;;8.61;68.16
70338;BME280;57757;53.198;19.646;2023-03-21T07:43:46;100107.80;;;8.64;67.92
70338;BME280;57757;53.198;19.646;2023-03-21T07:46:14;100107.62;;;8.64;67.85
70338;BME280;57757;53.198;19.646;2023-03-21T07:48:42;100107.07;;;8.66;67.86
70338;BME280;57757;53.198;19.646;2023-03-21T07:51:09;100109.46;;;8.68;67.83
70338;BME280;57757;53.198;19.646;2023-03-21T07:53:37;100105.79;;;8.70;67.80
70338;BME280;57757;53.198;19.646;2023-03-21T07:56:05;100112.31;;;8.74;67.70
70338;BME280;57757;53.198;19.646;2023-03-21T07:58:33;100111.92;;;8.76;67.79
70338;BME280;57757;53.198;19.646;2023-03-21T08:01:03;100111.75;;;8.76;67.76
70338;BME280;57757;53.198;19.646;2023-03-21T08:03:41;100112.93;;;8.78;67.61
70338;BME280;57757;53.198;19.646;2023-03-21T08:06:14;100115.13;;;8.81;67.67
70338;BME280;57757;53.198;19.646;2023-03-21T08:08:46;100121.67;;;8.84;67.65
70338;BME280;57757;53.198;19.646;2023-03-21T08:11:17;100124.71;;;8.88;67.73
70338;BME280;57757;53.198;19.646;2023-03-21T08:13:47;100122.70;;;8.94;67.73
70338;BME280;57757;53.198;19.646;2023-03-21T08:16:16;100126.20;;;9.02;67.65
70338;BME280;57757;53.198;19.646;2023-03-21T08:18:45;100127.48;;;9.07;67.64
70338;BME280;57757;53.198;19.646;2023-03-21T08:21:13;100132.39;;;9.14;67.58
70338;BME280;57757;53.198;19.646;2023-03-21T08:23:41;100133.46;;;9.22;67.63
70338;BME280;57757;53.198;19.646;2023-03-21T08:26:09;100132.73;;;9.33;67.64
70338;BME280;57757;53.198;19.646;2023-03-21T08:28:37;100131.77;;;9.47;67.69
70338;BME280;57757;53.198;19.646;2023-03-21T08:31:07;100133.82;;;9.57;67.52
70338;BME280;57757;53.198;19.646;2023-03-21T08:33:39;100131.80;;;9.71;67.51
70338;BME280;57757;53.198;19.646;2023-03-21T08:36:07;100134.16;;;9.90;67.66
70338;BME280;57757;53.198;19.646;2023-03-21T08:38:34;100131.02;;;10.08;67.43
70338;BME280;57757;53.198;19.646;2023-03-21T08:41:03;100132.47;;;10.21;67.37
70338;BME280;57757;53.198;19.646;2023-03-21T08:43:30;100131.52;;;10.25;66.95
70338;BME280;57757;53.198;19.646;2023-03-21T08:45:58;100130.90;;;10.29;66.86
70338;BME280;57757;53.198;19.646;2023-03-21T08:48:27;100127.77;;;10.36;66.95
70338;BME280;57757;53.198;19.646;2023-03-21T08:50:54;100132.05;;;10.62;67.26
70338;BME280;57757;53.198;19.646;2023-03-21T08:53:22;100133.71;;;10.78;66.71
70338;BME280;57757;53.198;19.646;2023-03-21T08:55:50;100135.77;;;10.86;66.41
70338;BME280;57757;53.198;19.646;2023-03-21T08:58:17;100137.18;;;10.99;66.52
70338;BME280;57757;53.198;19.646;2023-03-21T09:00:45;100137.19;;;11.12;66.45
70338;BME280;57757;53.198;19.646;2023-03-21T09:03:13;100139.17;;;11.22;66.16
70338;BME280;57757;53.198;19.646;2023-03-21T09:05:41;100139.23;;;11.27;65.82
70338;BME280;57757;53.198;19.646;2023-03-21T09:08:11;100141.96;;;11.28;65.72
70338;BME280;57757;53.198;19.646;2023-03-21T09:10:39;100145.39;;;11.30;65.68
70338;BME280;57757;53.198;19.646;2023-03-21T09:13:07;100145.20;;;11.49;65.84
70338;BME280;57757;53.198;19.646;2023-03-21T09:15:34;100144.44;;;11.77;66.01
70338;BME280;57757;53.198;19.646;2023-03-21T09:18:04;100144.73;;;12.03;65.52
70338;BME280;57757;53.198;19.646;2023-03-21T09:20:41;100141.86;;;12.06;64.73
70338;BME280;57757;53.198;19.646;2023-03-21T09:23:10;100145.67;;;12.12;65.05
70338;BME280;57757;53.198;19.646;2023-03-21T09:25:40;100143.74;;;12.24;64.81
70338;BME280;57757;53.198;19.646;2023-03-21T09:28:08;100138.74;;;12.45;65.03
70338;BME280;57757;53.198;19.646;2023-03-21T09:30:38;100138.67;;;12.73;64.75
70338;BME280;57757;53.198;19.646;2023-03-21T09:33:06;100141.39;;;12.71;63.95
70338;BME280;57757;53.198;19.646;2023-03-21T09:35:35;100148.08;;;12.52;63.68
70338;BME280;57757;53.198;19.646;2023-03-21T09:38:04;100149.55;;;12.39;63.59
70338;BME280;57757;53.198;19.646;2023-03-21T09:40:44;100156.67;;;12.29;63.57
70338;BME280;57757;53.198;19.646;2023-03-21T09:46:09;100161.78;;;11.86;63.24
70338;BME280;57757;53.198;19.646;2023-03-21T09:48:59;100164.42;;;11.66;63.44
70338;BME280;57757;53.198;19.646;2023-03-21T09:51:32;100168.34;;;11.57;63.62
70338;BME280;57757;53.198;19.646;2023-03-21T09:54:11;100165.42;;;11.49;63.35
70338;BME280;57757;53.198;19.646;2023-03-21T09:56:41;100165.83;;;11.47;63.60
70338;BME280;57757;53.198;19.646;2023-03-21T09:59:22;100164.14;;;11.51;63.69
70338;BME280;57757;53.198;19.646;2023-03-21T10:01:51;100167.20;;;11.86;64.20
70338;BME280;57757;53.198;19.646;2023-03-21T10:04:19;100163.95;;;12.31;64.22
70338;BME280;57757;53.198;19.646;2023-03-21T10:07:04;100164.20;;;12.39;63.38
70338;BME280;57757;53.198;19.646;2023-03-21T10:09:39;100164.83;;;12.31;62.98
70338;BME280;57757;53.198;19.646;2023-03-21T10:12:20;100169.65;;;12.15;62.59
70338;BME280;57757;53.198;19.646;2023-03-21T10:14:51;100168.59;;;11.98;62.42
70338;BME280;57757;53.198;19.646;2023-03-21T10:17:32;100171.88;;;11.87;62.38
70338;BME280;57757;53.198;19.646;2023-03-21T10:20:11;100170.42;;;11.89;62.98
70338;BME280;57757;53.198;19.646;2023-03-21T10:22:42;100165.55;;;12.45;63.88
70338;BME280;57757;53.198;19.646;2023-03-21T10:25:18;100161.63;;;13.12;64.08
70338;BME280;57757;53.198;19.646;2023-03-21T10:27:46;100164.60;;;13.43;63.29
70338;BME280;57757;53.198;19.646;2023-03-21T10:30:29;100163.91;;;13.52;62.38
70338;BME280;57757;53.198;19.646;2023-03-21T10:33:01;100166.88;;;13.52;61.69
70338;BME280;57757;53.198;19.646;2023-03-21T10:35:32;100166.86;;;13.63;61.85
70338;BME280;57757;53.198;19.646;2023-03-21T10:38:14;100167.35;;;13.58;61.42
70338;BME280;57757;53.198;19.646;2023-03-21T10:40:43;100163.57;;;13.76;61.83
70338;BME280;57757;53.198;19.646;2023-03-21T10:43:38;100163.02;;;14.09;62.19
70338;BME280;57757;53.198;19.646;2023-03-21T10:46:15;100165.60;;;14.15;61.37
70338;BME280;57757;53.198;19.646;2023-03-21T10:48:50;100166.20;;;14.13;61.33
70338;BME280;57757;53.198;19.646;2023-03-21T10:51:21;100161.17;;;14.30;61.44
70338;BME280;57757;53.198;19.646;2023-03-21T10:53:55;100161.33;;;14.48;61.03
70338;BME280;57757;53.198;19.646;2023-03-21T10:56:30;100164.33;;;14.39;60.46
70338;BME280;57757;53.198;19.646;2023-03-21T10:58:59;100167.41;;;14.27;60.51
70338;BME280;57757;53.198;19.646;2023-03-21T11:01:42;100160.02;;;14.50;60.97
70338;BME280;57757;53.198;19.646;2023-03-21T11:04:15;100156.13;;;14.94;60.89
70338;BME280;57757;53.198;19.646;2023-03-21T11:07:04;100152.00;;;15.42;61.23
70338;BME280;57757;53.198;19.646;2023-03-21T11:09:54;100156.15;;;15.79;60.33
70338;BME280;57757;53.198;19.646;2023-03-21T11:12:30;100155.84;;;15.58;59.57
70338;BME280;57757;53.198;19.646;2023-03-21T11:17:59;100157.59;;;15.66;59.98
70338;BME280;57757;53.198;19.646;2023-03-21T11:20:31;100158.67;;;15.62;59.74
70338;BME280;57757;53.198;19.646;2023-03-21T11:23:02;100152.62;;;15.40;59.08
70338;BME280;57757;53.198;19.646;2023-03-21T11:25:35;100154.80;;;15.34;59.40
70338;BME280;57757;53.198;19.646;2023-03-21T11:28:13;100151.78;;;15.63;59.98
70338;BME280;57757;53.198;19.646;2023-03-21T11:30:56;100144.44;;;16.19;59.92
70338;BME280;57757;53.198;19.646;2023-03-21T11:33:34;100140.15;;;16.72;59.72
70338;BME280;57757;53.198;19.646;2023-03-21T11:38:38;100131.91;;;17.94;59.73
70338;BME280;57757;53.198;19.646;2023-03-21T11:41:07;100131.45;;;18.52;59.64
70338;BME280;57757;53.198;19.646;2023-03-21T11:43:36;100129.84;;;18.95;58.77
70338;BME280;57757;53.198;19.646;2023-03-21T11:48:41;100129.86;;;19.85;58.69
70338;BME280;57757;53.198;19.646;2023-03-21T11:56:55;100134.75;;;19.54;55.43
70338;BME280;57757;53.198;19.646;2023-03-21T12:05:15;100139.70;;;17.70;56.05
70338;BME280;57757;53.198;19.646;2023-03-21T12:10:31;100151.23;;;17.10;56.30
70338;BME280;57757;53.198;19.646;2023-03-21T12:15:41;100148.31;;;16.52;55.66
70338;BME280;57757;53.198;19.646;2023-03-21T12:26:35;100134.52;;;16.47;56.29
70338;BME280;57757;53.198;19.646;2023-03-21T12:35:08;100135.13;;;18.15;55.45
70338;BME280;57757;53.198;19.646;2023-03-21T12:46:38;100130.04;;;17.56;54.53
70338;BME280;57757;53.198;19.646;2023-03-21T12:49:31;100131.86;;;17.31;54.29
70338;BME280;57757;53.198;19.646;2023-03-21T12:54:58;100124.30;;;17.51;54.33
70338;BME280;57757;53.198;19.646;2023-03-21T12:57:29;100115.52;;;18.04;55.30
70338;BME280;57757;53.198;19.646;2023-03-21T13:01:04;100114.36;;;18.40;54.66
70338;BME280;57757;53.198;19.646;2023-03-21T13:03:16;100117.02;;;18.27;53.62
70338;BME280;57757;53.198;19.646;2023-03-21T13:05:58;100117.02;;;17.92;53.40
70338;BME280;57757;53.198;19.646;2023-03-21T13:08:34;100114.45;;;17.78;53.38
70338;BME280;57757;53.198;19.646;2023-03-21T13:11:06;100112.10;;;18.11;53.79
70338;BME280;57757;53.198;19.646;2023-03-21T13:16:47;100111.28;;;19.69;54.26
70338;BME280;57757;53.198;19.646;2023-03-21T13:21:59;100098.78;;;21.55;53.73
70338;BME280;57757;53.198;19.646;2023-03-21T13:27:02;100103.25;;;22.40;52.13
70338;BME280;57757;53.198;19.646;2023-03-21T13:29:43;100102.16;;;22.53;51.14
70338;BME280;57757;53.198;19.646;2023-03-21T13:35:13;100097.51;;;22.75;50.57
70338;BME280;57757;53.198;19.646;2023-03-21T13:37:49;100095.63;;;22.76;50.13
70338;BME280;57757;53.198;19.646;2023-03-21T13:40:36;100091.63;;;22.78;50.13
70338;BME280;57757;53.198;19.646;2023-03-21T13:46:42;100090.59;;;24.04;51.55
70338;BME280;57757;53.198;19.646;2023-03-21T13:49:41;100087.77;;;25.19;51.28
70338;BME280;57757;53.198;19.646;2023-03-21T13:54:48;100089.88;;;26.62;50.79
70338;BME280;57757;53.198;19.646;2023-03-21T13:57:35;100094.45;;;27.31;50.87
70338;BME280;57757;53.198;19.646;2023-03-21T14:00:27;100091.02;;;27.95;50.42
70338;BME280;57757;53.198;19.646;2023-03-21T14:05:51;100088.57;;;29.12;50.31
70338;BME280;57757;53.198;19.646;2023-03-21T14:08:27;100087.55;;;29.65;49.50
70338;BME280;57757;53.198;19.646;2023-03-21T14:11:19;100090.27;;;29.92;48.86
70338;BME280;57757;53.198;19.646;2023-03-21T14:13:48;100085.85;;;30.20;48.52
70338;BME280;57757;53.198;19.646;2023-03-21T14:16:19;100084.33;;;30.46;48.19
70338;BME280;57757;53.198;19.646;2023-03-21T14:19:00;100085.09;;;30.72;48.09
70338;BME280;57757;53.198;19.646;2023-03-21T14:21:32;100080.24;;;31.06;47.88
70338;BME280;57757;53.198;19.646;2023-03-21T14:24:03;100080.58;;;31.16;46.97
70338;BME280;57757;53.198;19.646;2023-03-21T14:26:35;100079.30;;;30.69;46.14
70338;BME280;57757;53.198;19.646;2023-03-21T14:29:05;100075.41;;;30.19;46.28
70338;BME280;57757;53.198;19.646;2023-03-21T14:31:52;100072.02;;;30.33;46.59
70338;BME280;57757;53.198;19.646;2023-03-21T14:34:21;100067.92;;;30.56;46.15
70338;BME280;57757;53.198;19.646;2023-03-21T14:36:49;100065.27;;;30.74;45.71
70338;BME280;57757;53.198;19.646;2023-03-21T14:39:31;100062.04;;;30.79;45.34
70338;BME280;57757;53.198;19.646;2023-03-21T14:42:10;100062.00;;;30.63;44.84
70338;BME280;57757;53.198;19.646;2023-03-21T14:44:38;100059.82;;;30.53;44.57
70338;BME280;57757;53.198;19.646;2023-03-21T14:47:24;100059.69;;;30.20;44.12
70338;BME280;57757;53.198;19.646;2023-03-21T14:49:54;100058.17;;;29.79;43.91
70338;BME280;57757;53.198;19.646;2023-03-21T14:52:33;100053.90;;;29.89;44.43
70338;BME280;57757;53.198;19.646;2023-03-21T14:55:05;100053.82;;;29.86;43.59
70338;BME280;57757;53.198;19.646;2023-03-21T14:57:38;100051.21;;;29.55;43.02
70338;BME280;57757;53.198;19.646;2023-03-21T15:00:23;100051.95;;;29.32;42.97
70338;BME280;57757;53.198;19.646;2023-03-21T15:02:53;100051.00;;;28.93;42.52
70338;BME280;57757;53.198;19.646;2023-03-21T15:07:57;100050.29;;;27.97;41.98
70338;BME280;57757;53.198;19.646;2023-03-21T15:10:28;100053.73;;;27.01;41.48
70338;BME280;57757;53.198;19.646;2023-03-21T15:13:13;100050.77;;;26.60;42.29
70338;BME280;57757;53.198;19.646;2023-03-21T15:15:41;100052.83;;;26.57;41.92
70338;BME280;57757;53.198;19.646;2023-03-21T15:18:14;100056.52;;;25.75;40.98
70338;BME280;57757;53.198;19.646;2023-03-21T15:21:01;100058.04;;;24.45;40.55